createdAt,value
2023-07-19T00:02:33.206Z,0.0
2023-07-19T00:05:45.510Z,0.0
2023-07-19T00:08:57.366Z,0.0
2023-07-19T00:12:09.305Z,0.0
2023-07-19T00:15:20.904Z,0.0
2023-07-19T00:18:32.702Z,0.0
2023-07-19T00:21:44.714Z,0.0
2023-07-19T00:25:58.765Z,0.0
2023-07-19T00:29:11.382Z,0.0
2023-07-19T00:32:24.210Z,0.0
2023-07-19T00:35:36.714Z,0.0
2023-07-19T00:38:49.071Z,0.0
2023-07-19T00:42:01.145Z,0.0
2023-07-19T00:45:13.510Z,0.0
2023-07-19T00:48:28.375Z,0.0
2023-07-19T00:51:40.321Z,0.0
2023-07-19T00:54:52.427Z,0.0
2023-07-19T00:58:04.605Z,0.0
2023-07-19T01:02:33.160Z,0.0
2023-07-19T01:05:46.153Z,0.0
2023-07-19T01:08:58.352Z,0.0
2023-07-19T01:12:11.093Z,0.0
2023-07-19T01:15:23.367Z,0.0
2023-07-19T01:18:36.541Z,0.0
2023-07-19T01:22:09.114Z,0.0
2023-07-19T01:25:20.735Z,0.0
2023-07-19T01:28:40.171Z,0.0
2023-07-19T01:31:52.062Z,0.0
2023-07-19T01:35:25.785Z,0.0
2023-07-19T01:38:38.070Z,0.0
2023-07-19T01:41:49.311Z,0.0
2023-07-19T01:45:00.876Z,0.0
2023-07-19T01:48:13.765Z,0.0
2023-07-19T01:51:26.021Z,0.0
2023-07-19T01:54:39.726Z,0.0
2023-07-19T01:57:51.766Z,0.0
2023-07-19T02:02:34.462Z,0.0
2023-07-19T02:05:46.863Z,0.0
2023-07-19T02:08:58.366Z,0.0
2023-07-19T02:12:11.617Z,0.0
2023-07-19T02:15:23.509Z,0.0
2023-07-19T02:18:35.675Z,0.0
2023-07-19T02:21:48.021Z,0.0
2023-07-19T02:24:59.791Z,0.0
2023-07-19T02:28:11.304Z,0.0
2023-07-19T02:31:23.647Z,0.0
2023-07-19T02:34:36.375Z,0.0
2023-07-19T02:37:47.847Z,0.0
2023-07-19T02:40:59.498Z,0.0
2023-07-19T02:44:11.530Z,0.0
2023-07-19T02:47:23.432Z,0.0
2023-07-19T02:50:37.558Z,0.0
2023-07-19T02:53:49.744Z,0.0
2023-07-19T02:57:01.015Z,0.0
2023-07-19T03:02:36.910Z,0.0
2023-07-19T03:05:49.560Z,0.0
2023-07-19T03:09:01.178Z,0.0
2023-07-19T03:12:13.771Z,0.0
2023-07-19T03:15:25.222Z,0.0
2023-07-19T03:18:37.788Z,0.0
2023-07-19T03:21:49.313Z,0.0
2023-07-19T03:25:01.822Z,0.0
2023-07-19T03:28:13.813Z,0.0
2023-07-19T03:31:26.140Z,0.0
2023-07-19T03:34:37.949Z,0.0
2023-07-19T03:37:49.181Z,0.0
2023-07-19T03:41:00.626Z,0.0
2023-07-19T03:44:12.032Z,0.0
2023-07-19T03:47:24.236Z,0.0
2023-07-19T03:50:36.600Z,0.0
2023-07-19T03:53:51.959Z,0.0
2023-07-19T03:57:04.150Z,0.0
2023-07-19T04:02:32.949Z,0.0
2023-07-19T04:08:03.929Z,0.0
2023-07-19T04:11:16.332Z,0.0
2023-07-19T04:14:29.398Z,0.0
2023-07-19T04:17:42.959Z,0.0
2023-07-19T04:20:55.365Z,0.0
2023-07-19T04:24:10.889Z,0.0
2023-07-19T04:27:23.025Z,0.0
2023-07-19T04:30:35.670Z,0.0
2023-07-19T04:33:52.738Z,0.0
2023-07-19T04:37:05.612Z,0.0
2023-07-19T04:40:18.222Z,0.0
2023-07-19T04:43:30.729Z,0.0
2023-07-19T04:46:43.288Z,0.0
2023-07-19T04:49:55.865Z,0.0
2023-07-19T04:53:07.604Z,0.0
2023-07-19T04:56:19.576Z,0.0
2023-07-19T04:59:31.564Z,0.0
2023-07-19T05:02:32.918Z,0.0
2023-07-19T05:05:46.067Z,0.0
2023-07-19T05:09:01.499Z,0.0
2023-07-19T05:12:14.770Z,0.0
2023-07-19T05:15:27.394Z,0.0
2023-07-19T05:18:40.690Z,0.0
2023-07-19T05:21:52.834Z,0.0
2023-07-19T05:25:05.269Z,0.0
2023-07-19T05:28:17.291Z,0.0
2023-07-19T05:31:30.242Z,0.0
2023-07-19T05:34:44.307Z,0.0
2023-07-19T05:37:58.715Z,0.0
2023-07-19T05:41:13.225Z,0.0
2023-07-19T05:44:26.114Z,0.0
2023-07-19T05:47:42.675Z,0.0
2023-07-19T05:50:55.578Z,0.0
2023-07-19T05:54:08.301Z,0.0
2023-07-19T05:57:21.323Z,0.0
2023-07-19T06:03:07.649Z,0.0
2023-07-19T06:06:22.388Z,0.0
2023-07-19T06:09:41.901Z,0.0
2023-07-19T06:12:54.726Z,0.0
2023-07-19T06:16:09.974Z,0.0
2023-07-19T06:19:22.420Z,0.0
2023-07-19T06:22:35.470Z,0.0
2023-07-19T06:25:48.275Z,0.0
2023-07-19T06:29:01.755Z,0.0
2023-07-19T06:32:15.142Z,0.0
2023-07-19T06:35:27.454Z,0.0
2023-07-19T06:38:40.108Z,0.0
2023-07-19T06:41:52.578Z,0.0
2023-07-19T06:45:04.699Z,0.0
2023-07-19T06:48:20.811Z,0.0
2023-07-19T06:51:33.406Z,0.0
2023-07-19T06:55:13.152Z,0.0
2023-07-19T06:58:25.279Z,0.0
2023-07-19T07:02:32.830Z,0.0
2023-07-19T07:05:46.493Z,0.0
2023-07-19T07:08:59.993Z,0.0
2023-07-19T07:12:12.759Z,0.0
2023-07-19T07:15:25.370Z,0.0
2023-07-19T07:18:38.266Z,0.0
2023-07-19T07:21:52.046Z,0.0
2023-07-19T07:25:04.587Z,0.0
2023-07-19T07:28:16.625Z,0.0
2023-07-19T07:31:29.732Z,0.0
2023-07-19T07:34:42.563Z,0.0
2023-07-19T07:37:54.855Z,0.0
2023-07-19T07:41:07.038Z,0.0
2023-07-19T07:44:19.970Z,0.0
2023-07-19T07:47:33.158Z,0.0
2023-07-19T07:50:45.622Z,0.0
2023-07-19T07:57:30.723Z,0.0
2023-07-19T08:02:34.068Z,0.0
2023-07-19T08:05:47.268Z,0.0
2023-07-19T08:08:59.306Z,0.0
2023-07-19T08:12:11.884Z,0.0
2023-07-19T08:15:24.110Z,0.0
2023-07-19T08:18:37.165Z,0.0
2023-07-19T08:21:50.313Z,0.0
2023-07-19T08:25:28.199Z,0.0
2023-07-19T08:28:40.958Z,0.0
2023-07-19T08:31:53.822Z,0.0
2023-07-19T08:35:06.475Z,0.0
2023-07-19T08:38:21.276Z,0.0
2023-07-19T08:41:33.954Z,0.0
2023-07-19T08:44:46.449Z,0.0
2023-07-19T08:48:00.000Z,0.0
2023-07-19T08:51:12.557Z,0.0
2023-07-19T08:54:25.659Z,0.0
2023-07-19T08:57:37.899Z,0.0
2023-07-19T09:02:33.605Z,0.0
2023-07-19T09:05:46.777Z,0.0
2023-07-19T09:09:03.530Z,0.0
2023-07-19T09:12:16.329Z,0.0
2023-07-19T09:15:29.979Z,0.0
2023-07-19T09:21:57.775Z,0.0
2023-07-19T09:25:11.131Z,0.0
2023-07-19T09:28:27.104Z,0.0
2023-07-19T09:31:40.540Z,0.0
2023-07-19T09:34:56.406Z,0.0
2023-07-19T09:38:08.273Z,0.0
2023-07-19T09:41:25.383Z,0.0
2023-07-19T09:44:37.603Z,0.0
2023-07-19T09:48:11.255Z,0.0
2023-07-19T09:51:26.950Z,0.0
2023-07-19T09:54:39.114Z,0.0
2023-07-19T09:57:50.772Z,0.0
2023-07-19T10:02:32.980Z,0.0
2023-07-19T10:05:46.186Z,0.0
2023-07-19T10:09:03.582Z,0.0
2023-07-19T10:12:15.783Z,0.0
2023-07-19T10:15:50.141Z,2.16
2023-07-19T10:19:04.410Z,2.16
2023-07-19T10:22:16.696Z,0.0
2023-07-19T10:25:29.928Z,0.0
2023-07-19T10:28:43.356Z,0.0
2023-07-19T10:32:21.841Z,0.0
2023-07-19T10:35:56.377Z,0.0
2023-07-19T10:39:12.132Z,1.08
2023-07-19T10:42:24.172Z,2.16
2023-07-19T10:46:09.894Z,2.16
2023-07-19T10:49:27.049Z,2.16
2023-07-19T10:52:41.291Z,2.16
2023-07-19T11:02:35.238Z,2.16
2023-07-19T11:05:48.881Z,1.08
2023-07-19T11:09:03.408Z,1.08
2023-07-19T11:12:15.886Z,2.16
2023-07-19T11:15:29.195Z,2.16
2023-07-19T11:18:41.502Z,1.08
2023-07-19T11:25:08.541Z,3.24
2023-07-19T11:28:23.935Z,3.24
2023-07-19T11:31:37.243Z,3.24
2023-07-19T11:34:49.732Z,2.16
2023-07-19T11:38:01.543Z,2.16
2023-07-19T11:41:13.831Z,3.24
2023-07-19T11:44:29.942Z,3.24
2023-07-19T11:47:42.953Z,3.24
2023-07-19T11:50:56.390Z,3.24
2023-07-19T11:54:08.614Z,3.24
2023-07-19T11:57:30.050Z,3.24
2023-07-19T12:02:34.752Z,2.16
2023-07-19T12:05:47.737Z,2.16
2023-07-19T12:08:59.159Z,4.32
2023-07-19T12:12:11.591Z,4.32
2023-07-19T12:15:29.607Z,3.24
2023-07-19T12:18:46.735Z,3.24
2023-07-19T12:21:59.743Z,3.24
2023-07-19T12:25:18.659Z,3.24
2023-07-19T12:28:41.325Z,2.16
2023-07-19T12:32:19.184Z,2.16
2023-07-19T12:35:31.557Z,3.24
2023-07-19T12:38:44.980Z,3.24
2023-07-19T12:41:57.190Z,2.16
2023-07-19T12:45:09.347Z,2.16
2023-07-19T12:48:26.294Z,2.16
2023-07-19T12:51:38.158Z,4.32
2023-07-19T12:55:11.999Z,4.32
2023-07-19T12:58:25.480Z,5.4
2023-07-19T13:02:34.441Z,5.4
2023-07-19T13:05:51.720Z,4.32
2023-07-19T13:09:04.684Z,4.32
2023-07-19T13:12:19.591Z,4.32
2023-07-19T13:15:32.217Z,4.32
2023-07-19T13:22:25.692Z,5.4
2023-07-19T13:25:38.850Z,3.24
2023-07-19T13:28:51.041Z,3.24
2023-07-19T13:32:09.168Z,4.32
2023-07-19T13:36:25.099Z,4.32
2023-07-19T13:40:26.898Z,3.24
2023-07-19T13:43:45.168Z,3.24
2023-07-19T13:46:57.698Z,5.4
2023-07-19T13:50:11.421Z,5.4
2023-07-19T13:53:23.040Z,10.8
2023-07-19T13:56:38.222Z,10.8
2023-07-19T13:59:50.266Z,8.64
2023-07-19T14:02:39.240Z,8.64
2023-07-19T14:09:16.025Z,7.56
2023-07-19T14:12:41.486Z,7.56
2023-07-19T14:16:17.185Z,6.48
2023-07-19T14:19:38.674Z,6.48
2023-07-19T14:22:52.195Z,8.64
2023-07-19T14:26:05.233Z,8.64
2023-07-19T14:29:17.476Z,5.4
2023-07-19T14:32:37.450Z,5.4
2023-07-19T14:36:06.891Z,5.4
2023-07-19T14:39:20.387Z,5.4
2023-07-19T14:42:33.130Z,5.4
2023-07-19T14:45:45.689Z,5.4
2023-07-19T14:49:01.185Z,3.24
2023-07-19T14:52:14.538Z,3.24
2023-07-19T14:55:29.639Z,3.24
2023-07-19T14:58:43.721Z,7.56
2023-07-19T15:03:47.348Z,7.56
2023-07-19T15:07:03.821Z,7.56
2023-07-19T15:10:20.925Z,6.48
2023-07-19T15:13:38.748Z,6.48
2023-07-19T15:17:06.276Z,6.48
2023-07-19T15:20:23.559Z,2.16
2023-07-19T15:23:52.387Z,5.4
2023-07-19T15:27:29.556Z,5.4
2023-07-19T15:30:51.130Z,5.4
2023-07-19T15:34:03.568Z,5.4
2023-07-19T15:37:16.076Z,5.4
2023-07-19T15:40:28.262Z,6.48
2023-07-19T15:43:40.976Z,6.48
2023-07-19T15:46:57.930Z,7.56
2023-07-19T15:50:10.347Z,7.56
2023-07-19T15:53:23.829Z,3.24
2023-07-19T15:56:36.005Z,3.24
2023-07-19T15:59:47.906Z,6.48
2023-07-19T16:02:36.069Z,6.48
2023-07-19T16:08:07.533Z,5.4
2023-07-19T16:11:19.701Z,5.4
2023-07-19T16:14:31.918Z,2.16
2023-07-19T16:17:44.833Z,2.16
2023-07-19T16:20:56.840Z,3.24
2023-07-19T16:24:09.317Z,3.24
2023-07-19T16:27:23.128Z,2.16
2023-07-19T16:30:34.985Z,2.16
2023-07-19T16:33:49.303Z,2.16
2023-07-19T16:37:00.485Z,2.16
2023-07-19T16:40:14.279Z,2.16
2023-07-19T16:43:29.919Z,3.24
2023-07-19T16:46:42.068Z,3.24
2023-07-19T16:49:55.093Z,3.24
2023-07-19T16:53:06.962Z,3.24
2023-07-19T16:56:18.972Z,1.08
2023-07-19T16:59:31.114Z,1.08
2023-07-19T17:02:37.185Z,0.0
2023-07-19T17:05:49.650Z,0.0
2023-07-19T17:09:01.457Z,0.0
2023-07-19T17:12:13.846Z,0.0
2023-07-19T17:15:28.605Z,0.0
2023-07-19T17:19:26.369Z,4.32
2023-07-19T17:22:38.976Z,4.32
2023-07-19T17:25:52.190Z,2.16
2023-07-19T17:29:03.990Z,2.16
2023-07-19T17:32:16.268Z,0.0
2023-07-19T17:35:28.315Z,0.0
2023-07-19T17:38:40.366Z,1.08
2023-07-19T17:41:52.234Z,1.08
2023-07-19T17:45:04.105Z,3.24
2023-07-19T17:48:17.989Z,3.24
2023-07-19T17:51:30.363Z,3.24
2023-07-19T17:54:42.464Z,2.16
2023-07-19T17:57:53.859Z,0.0
2023-07-19T18:02:33.589Z,0.0
2023-07-19T18:05:46.374Z,4.32
2023-07-19T18:09:19.829Z,4.32
2023-07-19T18:12:32.715Z,4.32
2023-07-19T18:15:44.497Z,2.16
2023-07-19T18:18:59.890Z,2.16
2023-07-19T18:22:16.198Z,1.08
2023-07-19T18:25:31.202Z,1.08
2023-07-19T18:28:42.743Z,0.0
2023-07-19T18:31:55.489Z,0.0
2023-07-19T18:35:08.606Z,0.0
2023-07-19T18:38:20.245Z,0.0
2023-07-19T18:41:32.248Z,0.0
2023-07-19T18:44:44.645Z,0.0
2023-07-19T18:47:56.740Z,0.0
2023-07-19T18:51:09.564Z,0.0
2023-07-19T18:54:21.268Z,0.0
2023-07-19T18:57:36.572Z,2.16
2023-07-19T19:02:34.072Z,0.0
2023-07-19T19:05:47.773Z,0.0
2023-07-19T19:09:00.138Z,1.08
2023-07-19T19:12:12.827Z,1.08
2023-07-19T19:15:24.744Z,1.08
2023-07-19T19:18:37.230Z,0.0
2023-07-19T19:21:48.845Z,0.0
2023-07-19T19:25:00.633Z,0.0
2023-07-19T19:28:11.870Z,0.0
2023-07-19T19:31:24.472Z,0.0
2023-07-19T19:34:37.231Z,0.0
2023-07-19T19:37:49.607Z,0.0
2023-07-19T19:41:21.538Z,0.0
2023-07-19T19:44:35.697Z,0.0
2023-07-19T19:47:48.987Z,0.0
2023-07-19T19:51:01.479Z,0.0
2023-07-19T19:54:32.413Z,0.0
2023-07-19T19:58:47.349Z,0.0
2023-07-19T20:03:40.537Z,0.0
2023-07-19T20:11:11.816Z,0.0
2023-07-19T20:14:28.262Z,0.0
2023-07-19T20:22:13.814Z,0.0
2023-07-19T20:27:16.496Z,0.0
2023-07-19T20:44:41.218Z,0.0
2023-07-19T20:47:58.763Z,0.0
2023-07-19T20:51:33.199Z,0.0
2023-07-19T20:54:45.368Z,0.0
2023-07-19T20:57:57.395Z,0.0
2023-07-19T21:02:34.375Z,0.0
2023-07-19T21:05:47.599Z,0.0
2023-07-19T21:08:59.283Z,0.0
2023-07-19T21:12:12.388Z,0.0
2023-07-19T21:15:23.579Z,0.0
2023-07-19T21:18:36.269Z,0.0
2023-07-19T21:21:48.266Z,0.0
2023-07-19T21:25:30.754Z,0.0
2023-07-19T21:28:42.954Z,0.0
2023-07-19T21:32:05.926Z,0.0
2023-07-19T21:35:18.418Z,0.0
2023-07-19T21:38:32.589Z,0.0
2023-07-19T21:41:44.246Z,0.0
2023-07-19T21:45:00.086Z,0.0
2023-07-19T21:48:13.718Z,0.0
2023-07-19T21:51:26.449Z,0.0
2023-07-19T21:54:38.206Z,0.0
2023-07-19T21:57:50.059Z,0.0
2023-07-19T22:02:33.370Z,0.0
2023-07-19T22:05:49.872Z,0.0
2023-07-19T22:09:01.371Z,0.0
2023-07-19T22:12:13.789Z,0.0
2023-07-19T22:15:25.697Z,0.0
2023-07-19T22:18:38.069Z,0.0
2023-07-19T22:22:09.560Z,0.0
2023-07-19T22:25:21.191Z,0.0
2023-07-19T22:28:33.585Z,0.0
2023-07-19T22:31:45.239Z,0.0
2023-07-19T22:34:57.812Z,0.0
2023-07-19T22:38:09.519Z,0.0
2023-07-19T22:41:21.119Z,0.0
2023-07-19T22:44:32.448Z,0.0
2023-07-19T22:47:45.525Z,0.0
2023-07-19T22:50:58.413Z,0.0
2023-07-19T22:54:10.384Z,0.0
2023-07-19T22:57:22.206Z,0.0
2023-07-19T23:02:32.667Z,1.08
2023-07-19T23:05:45.625Z,1.08
2023-07-19T23:08:57.349Z,1.08
2023-07-19T23:12:09.391Z,1.08
2023-07-19T23:15:20.728Z,0.0
2023-07-19T23:18:33.272Z,0.0
2023-07-19T23:21:45.353Z,0.0
2023-07-19T23:24:57.078Z,0.0
2023-07-19T23:28:09.093Z,0.0
2023-07-19T23:31:23.529Z,0.0
2023-07-19T23:34:35.884Z,0.0
2023-07-19T23:37:47.228Z,0.0
2023-07-19T23:40:59.646Z,0.0
2023-07-19T23:44:11.207Z,1.08
2023-07-19T23:47:25.767Z,1.08
2023-07-19T23:50:37.150Z,1.08
2023-07-19T23:53:48.829Z,1.08
2023-07-19T23:57:00.358Z,0.0
